sensor_id;sensor_type;location;lat;lon;timestamp;temperature;humidity
13744;DHT22;6943;52.368;9.966;2023-10-13T15:49:00;21.60;1.00
13744;DHT22;6943;52.368;9.966;2023-10-13T15:51:28;21.60;1.00
13744;DHT22;6943;52.368;9.966;2023-10-13T15:53:55;21.50;1.00
13744;DHT22;6943;52.368;9.966;2023-10-13T15:56:21;21.50;1.00
13744;DHT22;6943;52.368;9.966;2023-10-13T15:58:47;21.50;1.00
13744;DHT22;6943;52.368;9.966;2023-10-13T16:01:13;21.50;1.00
13744;DHT22;6943;52.368;9.966;2023-10-13T16:03:45;21.50;1.00
13744;DHT22;6943;52.368;9.966;2023-10-13T16:06:17;21.50;1.00
13744;DHT22;6943;52.368;9.966;2023-10-13T16:08:43;21.40;1.00
13744;DHT22;6943;52.368;9.966;2023-10-13T16:11:11;21.40;1.00
13744;DHT22;6943;52.368;9.966;2023-10-13T16:13:41;21.40;1.00
13744;DHT22;6943;52.368;9.966;2023-10-13T16:16:16;21.40;1.00
13744;DHT22;6943;52.368;9.966;2023-10-13T16:18:43;21.40;1.00
13744;DHT22;6943;52.368;9.966;2023-10-13T16:21:12;21.40;1.00
13744;DHT22;6943;52.368;9.966;2023-10-13T16:23:43;21.30;1.00
13744;DHT22;6943;52.368;9.966;2023-10-13T16:26:17;21.30;1.00
13744;DHT22;6943;52.368;9.966;2023-10-13T16:28:50;21.20;1.00
13744;DHT22;6943;52.368;9.966;2023-10-13T16:31:25;21.20;1.00
13744;DHT22;6943;52.368;9.966;2023-10-13T16:33:54;21.20;1.00
13744;DHT22;6943;52.368;9.966;2023-10-13T16:36:20;21.20;1.00
13744;DHT22;6943;52.368;9.966;2023-10-13T16:38:47;21.20;16.80
13744;DHT22;6943;52.368;9.966;2023-10-13T16:41:13;21.20;35.40
13744;DHT22;6943;52.368;9.966;2023-10-13T16:43:39;21.20;1.00
13744;DHT22;6943;52.368;9.966;2023-10-13T16:46:09;21.20;1.00
13744;DHT22;6943;52.368;9.966;2023-10-13T16:48:40;21.20;1.00
13744;DHT22;6943;52.368;9.966;2023-10-13T16:51:06;21.20;1.00
13744;DHT22;6943;52.368;9.966;2023-10-13T16:53:38;21.20;1.00
13744;DHT22;6943;52.368;9.966;2023-10-13T16:56:04;21.20;1.00
13744;DHT22;6943;52.368;9.966;2023-10-13T16:58:30;21.10;1.00
13744;DHT22;6943;52.368;9.966;2023-10-13T17:00:56;21.10;1.00
13744;DHT22;6943;52.368;9.966;2023-10-13T17:03:21;21.10;1.00
13744;DHT22;6943;52.368;9.966;2023-10-13T17:05:57;21.10;1.00
13744;DHT22;6943;52.368;9.966;2023-10-13T17:08:29;21.10;1.00
13744;DHT22;6943;52.368;9.966;2023-10-13T17:10:55;21.10;1.00
13744;DHT22;6943;52.368;9.966;2023-10-13T17:13:21;21.10;1.00
13744;DHT22;6943;52.368;9.966;2023-10-13T17:15:47;21.10;1.00
13744;DHT22;6943;52.368;9.966;2023-10-13T17:18:14;21.10;1.00
13744;DHT22;6943;52.368;9.966;2023-10-13T17:20:42;21.00;1.00
13744;DHT22;6943;52.368;9.966;2023-10-13T17:23:11;21.00;1.00
13744;DHT22;6943;52.368;9.966;2023-10-13T17:25:38;21.00;1.00
13744;DHT22;6943;52.368;9.966;2023-10-13T17:28:05;21.00;1.00
13744;DHT22;6943;52.368;9.966;2023-10-13T17:30:41;20.90;1.00
13744;DHT22;6943;52.368;9.966;2023-10-13T17:33:07;20.90;1.00
13744;DHT22;6943;52.368;9.966;2023-10-13T17:35:40;20.90;20.00
13744;DHT22;6943;52.368;9.966;2023-10-13T17:38:06;20.80;99.80
13744;DHT22;6943;52.368;9.966;2023-10-13T17:40:33;20.80;90.90
13744;DHT22;6943;52.368;9.966;2023-10-13T17:42:59;20.80;99.90
13744;DHT22;6943;52.368;9.966;2023-10-13T17:45:24;20.80;99.90
13744;DHT22;6943;52.368;9.966;2023-10-13T17:47:50;20.70;99.90
13744;DHT22;6943;52.368;9.966;2023-10-13T17:50:17;20.70;99.90
13744;DHT22;6943;52.368;9.966;2023-10-13T17:52:44;20.70;99.90
13744;DHT22;6943;52.368;9.966;2023-10-13T17:55:12;20.60;99.90
13744;DHT22;6943;52.368;9.966;2023-10-13T17:57:40;20.60;99.90
13744;DHT22;6943;52.368;9.966;2023-10-13T18:00:06;20.60;99.90
13744;DHT22;6943;52.368;9.966;2023-10-13T18:02:42;20.70;99.90
13744;DHT22;6943;52.368;9.966;2023-10-13T18:05:11;20.60;99.90
13744;DHT22;6943;52.368;9.966;2023-10-13T18:07:40;20.60;99.90
13744;DHT22;6943;52.368;9.966;2023-10-13T18:10:08;20.60;99.90
13744;DHT22;6943;52.368;9.966;2023-10-13T18:12:35;20.60;99.90
13744;DHT22;6943;52.368;9.966;2023-10-13T18:15:03;20.60;99.90
13744;DHT22;6943;52.368;9.966;2023-10-13T18:17:30;20.60;99.90
13744;DHT22;6943;52.368;9.966;2023-10-13T18:19:58;20.50;99.90
13744;DHT22;6943;52.368;9.966;2023-10-13T18:22:23;20.50;99.90
13744;DHT22;6943;52.368;9.966;2023-10-13T18:24:50;20.50;99.90
13744;DHT22;6943;52.368;9.966;2023-10-13T18:27:17;20.50;99.90
13744;DHT22;6943;52.368;9.966;2023-10-13T18:29:43;20.50;99.90
13744;DHT22;6943;52.368;9.966;2023-10-13T18:32:10;20.50;99.90
13744;DHT22;6943;52.368;9.966;2023-10-13T18:34:35;20.40;1.00
13744;DHT22;6943;52.368;9.966;2023-10-13T18:37:01;20.40;1.00
13744;DHT22;6943;52.368;9.966;2023-10-13T18:39:27;20.40;1.00
13744;DHT22;6943;52.368;9.966;2023-10-13T18:42:00;20.40;1.00
13744;DHT22;6943;52.368;9.966;2023-10-13T18:44:26;20.40;1.00
13744;DHT22;6943;52.368;9.966;2023-10-13T18:46:52;20.30;1.00
13744;DHT22;6943;52.368;9.966;2023-10-13T18:49:17;20.30;1.00
13744;DHT22;6943;52.368;9.966;2023-10-13T18:51:43;20.30;1.00
13744;DHT22;6943;52.368;9.966;2023-10-13T18:54:10;20.30;1.00
13744;DHT22;6943;52.368;9.966;2023-10-13T18:56:36;20.30;1.00
13744;DHT22;6943;52.368;9.966;2023-10-13T18:59:02;20.30;1.00
13744;DHT22;6943;52.368;9.966;2023-10-13T19:01:29;20.30;1.00
13744;DHT22;6943;52.368;9.966;2023-10-13T19:04:00;20.30;1.00
13744;DHT22;6943;52.368;9.966;2023-10-13T19:06:27;20.20;1.00
13744;DHT22;6943;52.368;9.966;2023-10-13T19:08:54;20.20;1.00
13744;DHT22;6943;52.368;9.966;2023-10-13T19:11:20;20.20;1.00
13744;DHT22;6943;52.368;9.966;2023-10-13T19:13:47;20.20;1.00
13744;DHT22;6943;52.368;9.966;2023-10-13T19:16:15;20.20;1.00
13744;DHT22;6943;52.368;9.966;2023-10-13T19:18:42;20.10;1.00
13744;DHT22;6943;52.368;9.966;2023-10-13T19:21:15;20.10;1.00
13744;DHT22;6943;52.368;9.966;2023-10-13T19:23:43;20.10;1.00
13744;DHT22;6943;52.368;9.966;2023-10-13T19:26:12;20.00;1.00
13744;DHT22;6943;52.368;9.966;2023-10-13T19:28:38;20.00;1.00
13744;DHT22;6943;52.368;9.966;2023-10-13T19:31:06;20.00;1.00
13744;DHT22;6943;52.368;9.966;2023-10-13T19:33:32;19.90;99.90
13744;DHT22;6943;52.368;9.966;2023-10-13T19:35:58;19.90;99.90
13744;DHT22;6943;52.368;9.966;2023-10-13T19:38:23;19.90;99.90
13744;DHT22;6943;52.368;9.966;2023-10-13T19:40:48;19.80;99.90
13744;DHT22;6943;52.368;9.966;2023-10-13T19:43:14;19.80;99.90
13744;DHT22;6943;52.368;9.966;2023-10-13T19:45:40;19.80;99.90
13744;DHT22;6943;52.368;9.966;2023-10-13T19:48:09;19.70;99.90
13744;DHT22;6943;52.368;9.966;2023-10-13T19:50:36;19.70;1.00
13744;DHT22;6943;52.368;9.966;2023-10-13T19:53:08;19.70;99.90
13744;DHT22;6943;52.368;9.966;2023-10-13T19:55:41;19.70;1.00
13744;DHT22;6943;52.368;9.966;2023-10-13T19:58:08;19.70;1.00
13744;DHT22;6943;52.368;9.966;2023-10-13T20:00:34;19.60;1.00
13744;DHT22;6943;52.368;9.966;2023-10-13T20:02:59;19.60;99.90
13744;DHT22;6943;52.368;9.966;2023-10-13T20:05:25;19.70;99.90
13744;DHT22;6943;52.368;9.966;2023-10-13T20:07:50;19.70;1.00
13744;DHT22;6943;52.368;9.966;2023-10-13T20:10:16;19.70;13.10
13744;DHT22;6943;52.368;9.966;2023-10-13T20:12:42;19.70;99.90
13744;DHT22;6943;52.368;9.966;2023-10-13T20:15:09;19.70;99.90
13744;DHT22;6943;52.368;9.966;2023-10-13T20:17:35;19.70;99.90
13744;DHT22;6943;52.368;9.966;2023-10-13T20:20:02;19.70;99.90
13744;DHT22;6943;52.368;9.966;2023-10-13T20:22:30;19.70;94.30
13744;DHT22;6943;52.368;9.966;2023-10-13T20:24:55;19.70;99.90
13744;DHT22;6943;52.368;9.966;2023-10-13T20:27:21;19.60;99.90
13744;DHT22;6943;52.368;9.966;2023-10-13T20:29:48;19.60;99.90
13744;DHT22;6943;52.368;9.966;2023-10-13T20:32:16;19.50;1.00
13744;DHT22;6943;52.368;9.966;2023-10-13T20:34:42;19.40;1.00
13744;DHT22;6943;52.368;9.966;2023-10-13T20:37:08;19.40;1.00
13744;DHT22;6943;52.368;9.966;2023-10-13T20:39:34;19.30;1.00
13744;DHT22;6943;52.368;9.966;2023-10-13T20:42:00;19.30;1.00
13744;DHT22;6943;52.368;9.966;2023-10-13T20:44:31;19.30;1.00
13744;DHT22;6943;52.368;9.966;2023-10-13T20:47:02;19.30;1.00
13744;DHT22;6943;52.368;9.966;2023-10-13T20:49:32;19.30;1.00
13744;DHT22;6943;52.368;9.966;2023-10-13T20:51:58;19.30;1.00
13744;DHT22;6943;52.368;9.966;2023-10-13T20:54:23;19.30;1.00
13744;DHT22;6943;52.368;9.966;2023-10-13T20:56:49;19.30;1.00
13744;DHT22;6943;52.368;9.966;2023-10-13T20:59:14;19.30;1.00
13744;DHT22;6943;52.368;9.966;2023-10-13T21:01:41;19.20;99.90
13744;DHT22;6943;52.368;9.966;2023-10-13T21:04:07;19.20;99.90
13744;DHT22;6943;52.368;9.966;2023-10-13T21:06:35;19.20;7.60
13744;DHT22;6943;52.368;9.966;2023-10-13T21:09:02;19.20;99.90
13744;DHT22;6943;52.368;9.966;2023-10-13T21:11:29;19.20;99.90
13744;DHT22;6943;52.368;9.966;2023-10-13T21:13:54;19.10;99.90
13744;DHT22;6943;52.368;9.966;2023-10-13T21:16:20;19.10;99.90
13744;DHT22;6943;52.368;9.966;2023-10-13T21:18:47;19.10;99.90
13744;DHT22;6943;52.368;9.966;2023-10-13T21:21:14;19.10;1.00
13744;DHT22;6943;52.368;9.966;2023-10-13T21:23:47;19.10;1.00
13744;DHT22;6943;52.368;9.966;2023-10-13T21:26:21;19.00;1.00
13744;DHT22;6943;52.368;9.966;2023-10-13T21:28:47;19.00;1.00
13744;DHT22;6943;52.368;9.966;2023-10-13T21:31:14;18.90;99.90
13744;DHT22;6943;52.368;9.966;2023-10-13T21:33:53;18.90;1.00
13744;DHT22;6943;52.368;9.966;2023-10-13T21:36:20;18.90;1.00
13744;DHT22;6943;52.368;9.966;2023-10-13T21:38:47;18.80;1.00
13744;DHT22;6943;52.368;9.966;2023-10-13T21:41:14;18.80;99.90
13744;DHT22;6943;52.368;9.966;2023-10-13T21:43:44;18.70;1.00
13744;DHT22;6943;52.368;9.966;2023-10-13T21:46:11;18.70;1.00
13744;DHT22;6943;52.368;9.966;2023-10-13T21:48:40;18.70;1.00
13744;DHT22;6943;52.368;9.966;2023-10-13T21:51:09;18.70;99.90
13744;DHT22;6943;52.368;9.966;2023-10-13T21:53:35;18.60;1.00
13744;DHT22;6943;52.368;9.966;2023-10-13T21:56:04;18.60;1.00
13744;DHT22;6943;52.368;9.966;2023-10-13T21:58:36;18.50;99.90
13744;DHT22;6943;52.368;9.966;2023-10-13T22:01:02;18.50;1.00
13744;DHT22;6943;52.368;9.966;2023-10-13T22:03:56;18.40;1.00
13744;DHT22;6943;52.368;9.966;2023-10-13T22:06:30;18.30;1.00
13744;DHT22;6943;52.368;9.966;2023-10-13T22:08:55;18.30;99.90
13744;DHT22;6943;52.368;9.966;2023-10-13T22:11:21;18.30;99.90
13744;DHT22;6943;52.368;9.966;2023-10-13T22:13:47;18.30;99.90
13744;DHT22;6943;52.368;9.966;2023-10-13T22:16:14;18.20;1.00
13744;DHT22;6943;52.368;9.966;2023-10-13T22:18:42;18.20;99.90
13744;DHT22;6943;52.368;9.966;2023-10-13T22:21:12;18.10;99.90
13744;DHT22;6943;52.368;9.966;2023-10-13T22:23:39;18.10;99.90
13744;DHT22;6943;52.368;9.966;2023-10-13T22:26:08;18.10;1.00
13744;DHT22;6943;52.368;9.966;2023-10-13T22:28:44;18.20;1.00
13744;DHT22;6943;52.368;9.966;2023-10-13T22:31:14;18.20;1.00
13744;DHT22;6943;52.368;9.966;2023-10-13T22:33:49;18.20;1.00
13744;DHT22;6943;52.368;9.966;2023-10-13T22:36:15;18.20;1.00
13744;DHT22;6943;52.368;9.966;2023-10-13T22:38:54;18.20;1.00
13744;DHT22;6943;52.368;9.966;2023-10-13T22:41:21;18.20;1.00
13744;DHT22;6943;52.368;9.966;2023-10-13T22:43:48;18.30;1.00
13744;DHT22;6943;52.368;9.966;2023-10-13T22:46:14;18.30;1.00
13744;DHT22;6943;52.368;9.966;2023-10-13T22:48:39;18.30;1.00
13744;DHT22;6943;52.368;9.966;2023-10-13T22:51:05;18.30;1.00
13744;DHT22;6943;52.368;9.966;2023-10-13T22:53:35;18.30;1.00
13744;DHT22;6943;52.368;9.966;2023-10-13T22:56:01;18.30;1.00
13744;DHT22;6943;52.368;9.966;2023-10-13T22:58:27;18.30;99.90
13744;DHT22;6943;52.368;9.966;2023-10-13T23:00:53;18.20;99.90
13744;DHT22;6943;52.368;9.966;2023-10-13T23:03:25;18.20;99.90
13744;DHT22;6943;52.368;9.966;2023-10-13T23:06:03;18.10;1.00
13744;DHT22;6943;52.368;9.966;2023-10-13T23:08:30;18.10;1.00
13744;DHT22;6943;52.368;9.966;2023-10-13T23:11:08;18.00;1.00
13744;DHT22;6943;52.368;9.966;2023-10-13T23:13:47;18.00;1.00
13744;DHT22;6943;52.368;9.966;2023-10-13T23:16:20;17.90;1.00
13744;DHT22;6943;52.368;9.966;2023-10-13T23:18:53;17.90;1.00
13744;DHT22;6943;52.368;9.966;2023-10-13T23:21:20;17.90;1.00
13744;DHT22;6943;52.368;9.966;2023-10-13T23:23:46;17.80;1.00
13744;DHT22;6943;52.368;9.966;2023-10-13T23:26:16;17.80;1.00
13744;DHT22;6943;52.368;9.966;2023-10-13T23:28:45;17.80;1.00
13744;DHT22;6943;52.368;9.966;2023-10-13T23:31:25;17.80;1.00
13744;DHT22;6943;52.368;9.966;2023-10-13T23:33:52;17.70;1.00
13744;DHT22;6943;52.368;9.966;2023-10-13T23:36:20;17.70;1.00
13744;DHT22;6943;52.368;9.966;2023-10-13T23:38:46;17.70;1.00
13744;DHT22;6943;52.368;9.966;2023-10-13T23:41:24;17.60;1.00
13744;DHT22;6943;52.368;9.966;2023-10-13T23:43:52;17.70;1.00
13744;DHT22;6943;52.368;9.966;2023-10-13T23:46:22;17.70;1.00
13744;DHT22;6943;52.368;9.966;2023-10-13T23:48:47;17.70;1.00
13744;DHT22;6943;52.368;9.966;2023-10-13T23:51:14;17.80;1.00
13744;DHT22;6943;52.368;9.966;2023-10-13T23:53:46;17.80;1.00
13744;DHT22;6943;52.368;9.966;2023-10-13T23:56:13;17.90;1.00
13744;DHT22;6943;52.368;9.966;2023-10-13T23:58:41;17.90;1.00
